createdAt,value
2019-01-24T00:02:29.625Z,-2.10
2019-01-24T00:04:59.541Z,-2.10
2019-01-24T00:07:29.489Z,-2.10
2019-01-24T00:09:59.422Z,-2.00
2019-01-24T00:12:29.386Z,-1.90
2019-01-24T00:14:59.347Z,-2.00
2019-01-24T00:17:29.489Z,-2.50
2019-01-24T00:19:59.392Z,-2.00
2019-01-24T00:22:29.330Z,-1.90
2019-01-24T00:24:59.187Z,-1.90
2019-01-24T00:27:29.140Z,-2.00
2019-01-24T00:29:59.054Z,-2.00
2019-01-24T00:32:28.962Z,-2.00
2019-01-24T00:34:58.875Z,-2.10
2019-01-24T00:37:28.810Z,-1.80
2019-01-24T00:39:58.979Z,-2.00
2019-01-24T00:42:28.931Z,-2.00
2019-01-24T00:44:58.779Z,-2.00
2019-01-24T00:47:28.775Z,-1.60
2019-01-24T00:49:58.714Z,-2.00
2019-01-24T00:52:29.072Z,-2.10
2019-01-24T00:54:59.055Z,-2.20
2019-01-24T00:57:28.968Z,-2.40
2019-01-24T00:59:58.894Z,-2.30
2019-01-24T01:02:28.852Z,-2.30
2019-01-24T01:04:58.811Z,-2.20
2019-01-24T01:07:28.759Z,-2.10
2019-01-24T01:09:58.705Z,-2.10
2019-01-24T01:12:28.554Z,-2.10
2019-01-24T01:14:58.490Z,-2.10
2019-01-24T01:17:28.370Z,-2.00
2019-01-24T01:19:58.684Z,-1.90
2019-01-24T01:22:28.640Z,-2.00
2019-01-24T01:24:59.751Z,-2.10
2019-01-24T01:27:29.682Z,-1.90
2019-01-24T01:29:59.608Z,-2.00
2019-01-24T01:32:29.855Z,-1.90
2019-01-24T01:35:00.026Z,-1.90
2019-01-24T01:37:29.953Z,-1.50
2019-01-24T01:39:59.919Z,-1.90
2019-01-24T01:42:29.852Z,-2.00
2019-01-24T01:44:59.803Z,-1.80
2019-01-24T01:47:29.770Z,-1.90
2019-01-24T01:49:59.730Z,-1.80
2019-01-24T01:52:29.647Z,-1.80
2019-01-24T01:54:59.584Z,-1.70
2019-01-24T01:57:29.461Z,-1.80
2019-01-24T01:59:59.417Z,-1.90
2019-01-24T02:02:29.505Z,-1.70
2019-01-24T02:04:59.451Z,-1.80
2019-01-24T02:07:29.405Z,-2.10
2019-01-24T02:09:59.332Z,-1.90
2019-01-24T02:12:29.326Z,-2.00
2019-01-24T02:14:59.456Z,-2.00
2019-01-24T02:17:29.380Z,-2.20
2019-01-24T02:19:59.322Z,-2.10
2019-01-24T02:22:29.301Z,-2.10
2019-01-24T02:24:59.228Z,-2.10
2019-01-24T02:27:29.199Z,-2.10
2019-01-24T02:29:59.086Z,-2.00
2019-01-24T02:32:29.262Z,-2.00
2019-01-24T02:34:59.194Z,-2.00
2019-01-24T02:37:29.501Z,-1.90
2019-01-24T02:39:59.355Z,-2.00
2019-01-24T02:42:29.319Z,-1.90
2019-01-24T02:44:59.259Z,-1.80
2019-01-24T02:47:29.254Z,-1.80
2019-01-24T02:49:59.195Z,-2.00
2019-01-24T02:52:29.169Z,-1.90
2019-01-24T02:54:59.125Z,-1.80
2019-01-24T02:57:29.090Z,-1.30
2019-01-24T02:59:59.022Z,-1.90
2019-01-24T03:02:29.047Z,-1.90
2019-01-24T03:04:58.995Z,-1.90
2019-01-24T03:07:28.956Z,-1.60
2019-01-24T03:09:58.890Z,-2.00
2019-01-24T03:12:28.857Z,-2.10
2019-01-24T03:14:58.697Z,-2.10
2019-01-24T03:17:28.593Z,-2.00
2019-01-24T03:19:58.453Z,-2.00
2019-01-24T03:22:28.364Z,-1.90
2019-01-24T03:24:59.383Z,-1.90
2019-01-24T03:27:29.380Z,-1.80
2019-01-24T03:29:59.316Z,-1.90
2019-01-24T03:32:29.929Z,-1.80
2019-01-24T03:35:04.018Z,-1.90
2019-01-24T03:37:31.874Z,-1.80
2019-01-24T03:40:01.851Z,-1.90
2019-01-24T03:42:32.233Z,-1.80
2019-01-24T03:45:02.152Z,-2.00
2019-01-24T03:47:32.122Z,-2.40
2019-01-24T03:50:02.035Z,-2.30
2019-01-24T03:52:31.949Z,-2.50
2019-01-24T03:55:01.853Z,-2.40
2019-01-24T03:57:31.779Z,-2.60
2019-01-24T04:00:01.749Z,-2.50
2019-01-24T04:02:31.640Z,-2.40
2019-01-24T04:05:01.552Z,-2.30
2019-01-24T04:07:31.479Z,-2.20
2019-01-24T04:10:01.440Z,-2.30
2019-01-24T04:12:31.377Z,-2.30
2019-01-24T04:15:01.334Z,-2.20
2019-01-24T04:17:31.251Z,-2.20
2019-01-24T04:20:01.350Z,-2.20
2019-01-24T04:22:31.283Z,-2.40
2019-01-24T04:25:01.189Z,-2.30
2019-01-24T04:27:31.492Z,-2.20
2019-01-24T04:30:01.443Z,-2.30
2019-01-24T04:32:31.399Z,-2.20
2019-01-24T04:35:01.361Z,-2.20
2019-01-24T04:37:31.301Z,-1.70
2019-01-24T04:40:01.239Z,-2.10
2019-01-24T04:42:31.166Z,-2.20
2019-01-24T04:45:01.041Z,-2.10
2019-01-24T04:47:31.043Z,-2.40
2019-01-24T04:50:01.007Z,-2.30
2019-01-24T04:52:30.935Z,-2.20
2019-01-24T04:55:00.908Z,-2.30
2019-01-24T04:57:30.849Z,-2.20
2019-01-24T05:00:00.733Z,-2.20
2019-01-24T05:02:30.622Z,-2.30
2019-01-24T05:05:00.542Z,-2.30
2019-01-24T05:07:30.763Z,-2.30
2019-01-24T05:10:02.313Z,-2.50
2019-01-24T05:12:32.493Z,-2.50
2019-01-24T05:15:02.381Z,-2.30
2019-01-24T05:17:32.341Z,-2.60
2019-01-24T05:20:02.204Z,-2.30
2019-01-24T05:22:32.051Z,-2.30
2019-01-24T05:25:01.933Z,-2.50
2019-01-24T05:27:31.898Z,-2.30
2019-01-24T05:30:01.881Z,-2.60
2019-01-24T05:32:31.808Z,-2.60
2019-01-24T05:35:01.815Z,-2.50
2019-01-24T05:37:31.746Z,-2.40
2019-01-24T05:40:01.735Z,-2.30
2019-01-24T05:42:31.739Z,-2.40
2019-01-24T05:45:01.698Z,-2.40
2019-01-24T05:47:31.677Z,-2.40
2019-01-24T05:50:01.820Z,-2.30
2019-01-24T05:52:31.965Z,-2.20
2019-01-24T05:55:02.035Z,-2.20
2019-01-24T05:57:32.102Z,-1.90
2019-01-24T06:00:02.149Z,-2.30
2019-01-24T06:02:31.998Z,-2.30
2019-01-24T06:05:02.583Z,-2.20
2019-01-24T06:07:32.533Z,-2.10
2019-01-24T06:10:02.400Z,-2.00
2019-01-24T06:12:32.271Z,-2.20
2019-01-24T06:15:02.222Z,-2.10
2019-01-24T06:17:32.153Z,-1.90
2019-01-24T06:20:01.993Z,-2.10
2019-01-24T06:22:31.969Z,-2.20
2019-01-24T06:25:01.827Z,-2.10
2019-01-24T06:27:31.766Z,-1.60
2019-01-24T06:30:01.696Z,-2.10
2019-01-24T06:32:31.674Z,-2.10
2019-01-24T06:35:01.607Z,-2.30
2019-01-24T06:37:31.593Z,-2.20
2019-01-24T06:40:01.528Z,-2.40
2019-01-24T06:42:31.521Z,-2.10
2019-01-24T06:45:01.403Z,-2.20
2019-01-24T06:47:31.388Z,-2.10
2019-01-24T06:50:01.341Z,-2.10
2019-01-24T06:52:31.337Z,-2.10
2019-01-24T06:55:01.285Z,-2.10
2019-01-24T06:57:31.266Z,-2.00
2019-01-24T07:00:01.429Z,-2.00
2019-01-24T07:02:31.407Z,-2.00
2019-01-24T07:05:01.320Z,-2.00
2019-01-24T07:07:31.265Z,-1.80
2019-01-24T07:10:01.135Z,-1.80
2019-01-24T07:12:31.073Z,-1.70
2019-01-24T07:15:01.013Z,-1.90
2019-01-24T07:17:30.970Z,-2.00
2019-01-24T07:20:00.945Z,-1.90
2019-01-24T07:22:30.902Z,-2.00
2019-01-24T07:25:01.023Z,-2.00
2019-01-24T07:27:30.992Z,-2.30
2019-01-24T07:30:04.517Z,-2.00
2019-01-24T07:32:34.421Z,-2.10
2019-01-24T07:35:05.037Z,-2.00
2019-01-24T07:37:34.953Z,-2.10
2019-01-24T07:40:06.151Z,-2.10
2019-01-24T07:42:36.113Z,-1.80
2019-01-24T07:45:10.526Z,-1.90
2019-01-24T07:47:40.517Z,-2.00
2019-01-24T07:50:11.954Z,-1.90
2019-01-24T07:52:41.894Z,-1.90
2019-01-24T07:55:12.368Z,-2.00
2019-01-24T07:57:42.653Z,-2.10
2019-01-24T08:00:16.334Z,-2.20
2019-01-24T08:02:46.278Z,-2.40
2019-01-24T08:05:16.366Z,-2.40
2019-01-24T08:07:46.325Z,-2.30
2019-01-24T08:10:17.797Z,-2.10
2019-01-24T08:12:48.177Z,-1.90
2019-01-24T08:15:19.397Z,-2.00
2019-01-24T08:17:49.772Z,-2.00
2019-01-24T08:20:21.807Z,-1.90
2019-01-24T08:22:51.750Z,-1.90
2019-01-24T08:30:28.532Z,-1.50
2019-01-24T08:32:58.481Z,-2.00
2019-01-24T08:35:28.688Z,-1.70
2019-01-24T08:42:56.876Z,-1.70
2019-01-24T08:52:54.725Z,-1.80
2019-01-24T08:55:39.283Z,-1.70
2019-01-24T08:58:10.168Z,-1.60
2019-01-24T09:00:40.306Z,-1.80
2019-01-24T09:03:10.278Z,-1.60
2019-01-24T09:05:40.192Z,-1.30
2019-01-24T09:10:41.625Z,-0.90
2019-01-24T09:13:11.603Z,-0.70
2019-01-24T09:20:39.953Z,-0.20
2019-01-24T09:23:09.855Z,0.30
2019-01-24T09:25:39.805Z,1.40
2019-01-24T09:28:14.817Z,2.60
2019-01-24T09:35:40.799Z,4.40
2019-01-24T09:38:10.732Z,4.60
2019-01-24T09:43:09.969Z,4.20
2019-01-24T09:45:39.896Z,4.30
2019-01-24T09:48:10.026Z,4.30
2019-01-24T09:50:39.965Z,4.20
2019-01-24T10:00:38.380Z,3.90
2019-01-24T10:05:37.657Z,3.40
2019-01-24T10:15:36.094Z,0.80
2019-01-24T10:18:06.246Z,0.70
2019-01-24T10:23:05.773Z,0.70
2019-01-24T10:28:06.877Z,0.40
2019-01-24T10:30:42.742Z,0.30
2019-01-24T10:38:07.086Z,0.80
2019-01-24T10:40:36.957Z,0.50
2019-01-24T10:43:06.993Z,0.50
2019-01-24T10:45:36.969Z,0.40
2019-01-24T10:48:07.353Z,0.70
2019-01-24T10:50:37.297Z,0.80
2019-01-24T10:55:36.425Z,0.10
2019-01-24T11:00:39.178Z,0.30
2019-01-24T11:05:45.454Z,0.30
2019-01-24T11:08:15.941Z,0.70
2019-01-24T11:10:45.936Z,1.70
2019-01-24T11:15:45.142Z,3.30
2019-01-24T11:20:44.337Z,3.80
2019-01-24T11:23:14.430Z,3.90
2019-01-24T11:28:13.613Z,3.80
2019-01-24T11:35:42.051Z,2.90
2019-01-24T11:38:12.195Z,2.10
2019-01-24T11:40:42.234Z,2.10
2019-01-24T11:43:12.125Z,1.70
2019-01-24T11:45:43.672Z,1.60
2019-01-24T11:48:13.624Z,1.20
2019-01-24T11:53:12.758Z,1.50
2019-01-24T11:55:42.778Z,1.30
2019-01-24T11:58:12.741Z,2.50
2019-01-24T12:00:48.518Z,3.10
2019-01-24T12:03:18.479Z,3.30
2019-01-24T12:05:48.395Z,3.80
2019-01-24T12:08:18.294Z,4.60
2019-01-24T12:10:48.260Z,5.10
2019-01-24T12:13:18.272Z,5.30
2019-01-24T12:23:16.041Z,5.30
2019-01-24T12:25:45.946Z,6.10
2019-01-24T12:30:45.184Z,5.60
2019-01-24T12:40:42.855Z,4.60
2019-01-24T12:50:40.788Z,2.60
2019-01-24T12:58:09.228Z,2.50
2019-01-24T13:00:40.113Z,2.40
2019-01-24T13:03:10.245Z,2.50
2019-01-24T13:05:40.310Z,2.20
2019-01-24T13:08:10.281Z,2.00
2019-01-24T13:10:40.149Z,1.80
2019-01-24T13:13:10.144Z,2.10
2019-01-24T13:15:41.238Z,2.40
2019-01-24T13:20:40.365Z,2.00
2019-01-24T13:23:10.266Z,2.00
2019-01-24T13:25:40.182Z,2.20
2019-01-24T13:28:10.141Z,2.00
2019-01-24T13:30:40.193Z,2.10
2019-01-24T13:40:38.200Z,1.90
2019-01-24T13:45:40.419Z,1.70
2019-01-24T13:48:10.536Z,1.80
2019-01-24T13:50:40.399Z,1.80
2019-01-24T14:00:40.509Z,1.80
2019-01-24T14:03:20.197Z,1.70
2019-01-24T14:05:50.134Z,1.70
2019-01-24T14:13:18.574Z,1.50
2019-01-24T14:18:17.930Z,1.60
2019-01-24T14:20:47.986Z,1.60
2019-01-24T14:25:47.239Z,1.60
2019-01-24T14:30:46.601Z,0.80
2019-01-24T14:33:16.508Z,1.30
2019-01-24T14:35:47.974Z,1.30
2019-01-24T14:43:16.349Z,1.30
2019-01-24T14:45:46.360Z,1.90
2019-01-24T14:53:15.056Z,1.10
2019-01-24T14:55:44.995Z,1.40
2019-01-24T15:00:53.737Z,1.30
2019-01-24T15:05:52.864Z,1.40
2019-01-24T15:10:52.040Z,1.10
2019-01-24T15:13:22.239Z,1.00
2019-01-24T15:15:52.202Z,1.10
2019-01-24T15:18:22.137Z,1.10
2019-01-24T15:20:52.087Z,2.00
2019-01-24T15:23:22.026Z,1.00
2019-01-24T15:25:51.966Z,1.00
2019-01-24T15:30:51.259Z,0.90
2019-01-24T15:35:51.453Z,0.70
2019-01-24T15:38:21.590Z,0.60
2019-01-24T15:40:51.598Z,0.60
2019-01-24T15:43:21.562Z,0.50
2019-01-24T15:45:51.518Z,0.80
2019-01-24T15:48:21.490Z,0.50
2019-01-24T15:50:51.454Z,0.40
2019-01-24T15:53:22.301Z,0.70
2019-01-24T15:55:52.265Z,0.50
2019-01-24T16:13:17.694Z,-0.30
2019-01-24T16:15:47.806Z,0.20
2019-01-24T16:20:47.006Z,0.20
2019-01-24T16:23:16.975Z,0.20
2019-01-24T16:33:14.953Z,0.20
2019-01-24T16:35:44.949Z,0.00
2019-01-24T16:40:44.201Z,0.10
2019-01-24T16:43:14.138Z,0.10
2019-01-24T16:45:44.229Z,0.10
2019-01-24T16:50:43.427Z,0.10
2019-01-24T16:55:42.569Z,-0.40
2019-01-24T16:58:12.715Z,-0.80
2019-01-24T17:00:45.965Z,-0.80
2019-01-24T17:03:16.985Z,-0.60
2019-01-24T17:08:16.949Z,0.30
2019-01-24T17:10:46.873Z,-0.90
2019-01-24T17:13:17.061Z,-0.50
2019-01-24T17:20:45.524Z,-1.10
2019-01-24T17:25:44.634Z,-0.80
2019-01-24T17:28:16.025Z,-0.90
2019-01-24T17:33:15.138Z,-1.10
2019-01-24T17:35:45.007Z,-0.10
2019-01-24T17:38:15.529Z,-1.30
2019-01-24T17:40:45.510Z,-1.70
2019-01-24T17:48:13.993Z,-1.40
2019-01-24T17:53:13.144Z,-1.30
2019-01-24T17:55:45.438Z,-1.00
2019-01-24T17:58:15.389Z,-1.40
2019-01-24T18:00:50.793Z,-0.30
2019-01-24T18:05:50.063Z,-1.50
2019-01-24T18:08:20.166Z,-1.40
2019-01-24T18:10:50.438Z,-1.30
2019-01-24T18:13:20.369Z,-1.10
2019-01-24T18:15:50.548Z,-1.20
2019-01-24T18:18:20.510Z,-1.00
2019-01-24T18:20:51.914Z,-1.30
2019-01-24T18:23:21.941Z,-0.60
2019-01-24T18:25:51.879Z,-1.40
2019-01-24T18:38:18.846Z,-1.70
2019-01-24T18:48:19.495Z,-2.10
2019-01-24T18:50:49.653Z,-1.00
2019-01-24T18:55:48.683Z,-0.80
2019-01-24T18:58:18.674Z,-1.40
2019-01-24T19:00:49.094Z,-1.30
2019-01-24T19:05:48.179Z,-1.20
2019-01-24T19:10:47.370Z,-1.00
2019-01-24T19:13:17.934Z,-1.20
2019-01-24T19:15:49.406Z,-1.30
2019-01-24T19:18:19.477Z,-1.10
2019-01-24T19:23:18.617Z,-1.30
2019-01-24T19:25:48.517Z,-1.40
2019-01-24T19:43:14.553Z,-1.50
2019-01-24T19:48:14.396Z,-1.70
2019-01-24T19:50:44.308Z,-0.70
2019-01-24T19:53:14.250Z,-1.40
2019-01-24T19:55:44.252Z,-0.50
2019-01-24T19:58:14.216Z,-1.50
2019-01-24T20:03:13.493Z,-1.50
2019-01-24T20:05:43.438Z,-2.10
2019-01-24T20:10:43.093Z,-2.20
2019-01-24T20:13:13.099Z,-1.70
2019-01-24T20:18:12.637Z,-2.00
2019-01-24T20:20:42.893Z,-1.70
2019-01-24T20:25:42.134Z,-1.90
2019-01-24T20:28:12.038Z,-0.90
2019-01-24T20:38:12.188Z,-1.80
2019-01-24T20:40:42.890Z,-2.10
2019-01-24T20:43:13.774Z,-1.90
2019-01-24T20:45:43.678Z,-2.00
2019-01-24T20:50:42.880Z,-2.00
2019-01-24T20:53:12.820Z,-1.90
2019-01-24T20:55:42.790Z,-2.10
2019-01-24T21:03:20.450Z,-2.40
2019-01-24T21:10:49.087Z,-2.40
2019-01-24T21:15:48.441Z,-2.20
2019-01-24T21:18:18.393Z,-2.50
2019-01-24T21:23:17.478Z,-2.70
2019-01-24T21:25:47.839Z,-2.60
2019-01-24T21:30:47.161Z,-2.40
2019-01-24T21:38:15.656Z,-2.60
2019-01-24T21:40:47.109Z,-2.90
2019-01-24T21:43:16.989Z,-2.80
2019-01-24T21:45:46.966Z,-2.90
2019-01-24T21:53:15.429Z,-2.40
2019-01-24T21:55:45.409Z,-2.60
2019-01-24T22:03:13.886Z,-2.80
2019-01-24T22:08:13.198Z,-2.70
2019-01-24T22:10:43.137Z,-2.70
2019-01-24T22:13:13.000Z,-2.70
2019-01-24T22:15:42.957Z,-2.90
2019-01-24T22:18:12.799Z,-2.20
2019-01-24T22:20:42.785Z,-3.00
2019-01-24T22:25:41.824Z,-2.70
2019-01-24T22:28:11.770Z,-2.60
2019-01-24T22:30:46.673Z,-2.30
2019-01-24T22:33:16.559Z,-2.60
2019-01-24T22:35:46.501Z,-2.70
2019-01-24T22:45:44.317Z,-2.30
2019-01-24T22:50:43.429Z,-2.30
2019-01-24T22:53:13.308Z,-1.70
2019-01-24T22:55:43.205Z,-2.60
2019-01-24T22:58:13.140Z,-2.70
2019-01-24T23:01:06.059Z,-3.20
2019-01-24T23:03:42.598Z,-3.00
2019-01-24T23:06:12.569Z,-2.70
2019-01-24T23:08:42.475Z,-2.80
2019-01-24T23:11:12.605Z,-2.80
2019-01-24T23:16:11.988Z,-2.60
2019-01-24T23:18:41.861Z,-2.80
2019-01-24T23:21:11.776Z,-3.10
2019-01-24T23:26:11.389Z,-3.20
2019-01-24T23:28:41.371Z,-3.30
2019-01-24T23:31:11.260Z,-3.20
2019-01-24T23:33:41.210Z,-3.10
2019-01-24T23:36:11.227Z,-3.10
2019-01-24T23:41:10.340Z,-2.60
2019-01-24T23:43:40.777Z,-3.50
2019-01-24T23:48:40.005Z,-2.90
2019-01-24T23:51:10.259Z,-2.90
2019-01-24T23:53:40.275Z,-2.70
2019-01-24T23:56:10.392Z,-3.30
2019-01-24T23:58:40.642Z,-3.30
